Terminal Aerodrome Forecast
Issued by NWS

Current Version | Previous Version | Text Only | Print | Product List | Glossary Off
Versions: 1 2 3 4 5 6 7 8 9 10 11 12 13 14 15 16 17 18 19 20 21 22 23 24 25 26

839
FTUS41 KILN 270220 AAB
TAFLUK
TAF AMD
KLUK 270220Z 2702/2724 33007KT P6SM -TSRA SCT060CB BKN100 OVC120
      TEMPO 2702/2704 2SM TSRA OVC025CB
     FM270400 VRB03KT P6SM VCSH SCT035 BKN100
     FM270700 06006KT 5SM BR OVC025
     FM271000 07006KT 5SM BR OVC015
      TEMPO 2711/2715 OVC008
     FM271500 09010KT P6SM BKN025
     FM272000 12010KT P6SM VCSH BKN035=

USA.gov is the U.S. government's official web portal to all federal, state and local government web resources and services.